sensor_id;sensor_type;location;lat;lon;timestamp;pressure;altitude;pressure_sealevel;temperature;humidity
56912;BME280;42800;53.928;27.662;2023-07-24T00:01:45;98698.81;;;17.59;100.00
56912;BME280;42800;53.928;27.662;2023-07-24T00:04:11;98702.78;;;17.58;100.00
56912;BME280;42800;53.928;27.662;2023-07-24T00:06:37;98718.63;;;17.58;100.00
56912;BME280;42800;53.928;27.662;2023-07-24T00:09:03;98663.19;;;17.58;100.00
56912;BME280;42800;53.928;27.662;2023-07-24T00:11:29;98659.66;;;17.57;100.00
56912;BME280;42800;53.928;27.662;2023-07-24T00:13:55;98625.63;;;17.57;100.00
56912;BME280;42800;53.928;27.662;2023-07-24T00:16:22;98596.38;;;17.52;100.00
56912;BME280;42800;53.928;27.662;2023-07-24T00:18:47;98593.06;;;17.61;100.00
56912;BME280;42800;53.928;27.662;2023-07-24T00:21:13;98606.56;;;17.59;100.00
56912;BME280;42800;53.928;27.662;2023-07-24T00:23:39;98498.47;;;17.59;100.00
56912;BME280;42800;53.928;27.662;2023-07-24T00:26:06;98498.66;;;17.68;100.00
56912;BME280;42800;53.928;27.662;2023-07-24T00:28:32;98447.47;;;17.56;100.00
56912;BME280;42800;53.928;27.662;2023-07-24T00:30:58;98494.06;;;17.61;100.00
56912;BME280;42800;53.928;27.662;2023-07-24T00:33:24;98462.13;;;17.73;100.00
56912;BME280;42800;53.928;27.662;2023-07-24T00:35:50;98451.78;;;17.77;100.00
56912;BME280;42800;53.928;27.662;2023-07-24T00:38:16;98441.50;;;17.74;100.00
56912;BME280;42800;53.928;27.662;2023-07-24T00:40:42;98414.44;;;17.82;100.00
56912;BME280;42800;53.928;27.662;2023-07-24T00:43:08;98449.72;;;17.61;100.00
56912;BME280;42800;53.928;27.662;2023-07-24T00:45:35;98435.91;;;17.78;100.00
56912;BME280;42800;53.928;27.662;2023-07-24T00:48:01;98316.78;;;17.74;100.00
56912;BME280;42800;53.928;27.662;2023-07-24T00:50:28;98290.13;;;17.80;100.00
56912;BME280;42800;53.928;27.662;2023-07-24T00:52:54;98199.66;;;17.86;100.00
56912;BME280;42800;53.928;27.662;2023-07-24T00:55:20;97996.69;;;17.37;100.00
56912;BME280;42800;53.928;27.662;2023-07-24T00:57:46;97949.91;;;17.26;100.00
56912;BME280;42800;53.928;27.662;2023-07-24T01:00:14;97986.25;;;17.70;100.00
56912;BME280;42800;53.928;27.662;2023-07-24T01:02:40;97913.09;;;17.80;100.00
56912;BME280;42800;53.928;27.662;2023-07-24T01:05:06;98042.72;;;17.76;100.00
56912;BME280;42800;53.928;27.662;2023-07-24T01:07:33;98185.47;;;17.52;100.00
56912;BME280;42800;53.928;27.662;2023-07-24T01:10:00;98077.59;;;17.74;100.00
56912;BME280;42800;53.928;27.662;2023-07-24T01:12:31;98126.88;;;17.82;100.00
56912;BME280;42800;53.928;27.662;2023-07-24T01:15:07;97943.81;;;17.31;100.00
56912;BME280;42800;53.928;27.662;2023-07-24T01:17:39;97940.44;;;17.65;100.00
56912;BME280;42800;53.928;27.662;2023-07-24T01:20:11;97889.69;;;17.81;100.00
56912;BME280;42800;53.928;27.662;2023-07-24T01:22:48;98005.81;;;17.50;100.00
56912;BME280;42800;53.928;27.662;2023-07-24T01:25:27;97948.31;;;17.67;100.00
56912;BME280;42800;53.928;27.662;2023-07-24T01:27:55;97950.56;;;17.85;100.00
56912;BME280;42800;53.928;27.662;2023-07-24T01:30:21;98006.25;;;17.91;100.00
56912;BME280;42800;53.928;27.662;2023-07-24T01:32:47;98044.06;;;17.84;100.00
56912;BME280;42800;53.928;27.662;2023-07-24T01:35:14;98147.84;;;17.83;100.00
56912;BME280;42800;53.928;27.662;2023-07-24T01:37:41;98249.47;;;17.74;100.00
56912;BME280;42800;53.928;27.662;2023-07-24T01:40:09;98277.59;;;17.72;100.00
56912;BME280;42800;53.928;27.662;2023-07-24T01:42:36;98287.91;;;17.72;100.00
56912;BME280;42800;53.928;27.662;2023-07-24T01:45:04;98297.00;;;17.72;100.00
56912;BME280;42800;53.928;27.662;2023-07-24T01:47:30;98331.94;;;17.70;100.00
56912;BME280;42800;53.928;27.662;2023-07-24T01:49:56;98324.13;;;17.64;100.00
56912;BME280;42800;53.928;27.662;2023-07-24T01:52:22;98397.72;;;17.49;100.00
56912;BME280;42800;53.928;27.662;2023-07-24T01:54:48;98416.25;;;17.52;100.00
56912;BME280;42800;53.928;27.662;2023-07-24T01:57:14;98444.19;;;17.41;100.00
56912;BME280;42800;53.928;27.662;2023-07-24T01:59:40;98437.09;;;17.40;100.00
56912;BME280;42800;53.928;27.662;2023-07-24T02:02:06;98488.06;;;17.47;100.00
56912;BME280;42800;53.928;27.662;2023-07-24T02:04:32;98453.66;;;17.44;100.00
56912;BME280;42800;53.928;27.662;2023-07-24T02:06:58;98473.06;;;17.44;100.00
56912;BME280;42800;53.928;27.662;2023-07-24T02:09:24;98466.72;;;17.44;100.00
56912;BME280;42800;53.928;27.662;2023-07-24T02:11:50;98476.06;;;17.33;100.00
56912;BME280;42800;53.928;27.662;2023-07-24T02:14:17;98503.38;;;17.31;100.00
56912;BME280;42800;53.928;27.662;2023-07-24T02:16:44;98480.81;;;17.33;100.00
56912;BME280;42800;53.928;27.662;2023-07-24T02:19:10;98486.75;;;17.31;100.00
56912;BME280;42800;53.928;27.662;2023-07-24T02:21:36;98499.31;;;17.36;100.00
56912;BME280;42800;53.928;27.662;2023-07-24T02:24:02;98521.84;;;17.38;100.00
56912;BME280;42800;53.928;27.662;2023-07-24T02:26:28;98473.63;;;17.35;100.00
56912;BME280;42800;53.928;27.662;2023-07-24T02:28:54;98528.25;;;17.35;100.00
56912;BME280;42800;53.928;27.662;2023-07-24T02:31:20;98562.44;;;17.48;100.00
56912;BME280;42800;53.928;27.662;2023-07-24T02:33:46;98460.88;;;17.58;100.00
56912;BME280;42800;53.928;27.662;2023-07-24T02:36:12;98389.19;;;17.60;100.00
56912;BME280;42800;53.928;27.662;2023-07-24T02:38:38;98419.31;;;17.58;100.00
56912;BME280;42800;53.928;27.662;2023-07-24T02:41:04;98442.25;;;17.58;100.00
56912;BME280;42800;53.928;27.662;2023-07-24T02:43:30;98441.13;;;17.56;100.00
56912;BME280;42800;53.928;27.662;2023-07-24T02:46:00;98465.34;;;17.52;100.00
56912;BME280;42800;53.928;27.662;2023-07-24T02:48:26;98407.00;;;17.59;100.00
56912;BME280;42800;53.928;27.662;2023-07-24T02:50:52;98352.03;;;17.57;100.00
56912;BME280;42800;53.928;27.662;2023-07-24T02:53:19;98324.66;;;17.59;100.00
56912;BME280;42800;53.928;27.662;2023-07-24T02:55:45;98461.97;;;17.44;100.00
56912;BME280;42800;53.928;27.662;2023-07-24T02:58:11;98612.56;;;17.34;100.00
56912;BME280;42800;53.928;27.662;2023-07-24T03:00:37;98662.50;;;17.30;100.00
56912;BME280;42800;53.928;27.662;2023-07-24T03:03:03;98693.88;;;17.24;100.00
56912;BME280;42800;53.928;27.662;2023-07-24T03:05:30;98746.75;;;17.09;100.00
56912;BME280;42800;53.928;27.662;2023-07-24T03:07:55;98745.84;;;17.16;100.00
56912;BME280;42800;53.928;27.662;2023-07-24T03:10:22;98763.88;;;17.01;100.00
56912;BME280;42800;53.928;27.662;2023-07-24T03:12:48;98758.28;;;17.04;100.00
56912;BME280;42800;53.928;27.662;2023-07-24T03:15:14;98765.63;;;16.57;100.00
56912;BME280;42800;53.928;27.662;2023-07-24T03:17:40;98762.88;;;16.87;100.00
56912;BME280;42800;53.928;27.662;2023-07-24T03:20:13;98754.56;;;16.87;100.00
56912;BME280;42800;53.928;27.662;2023-07-24T03:22:40;98761.25;;;16.90;100.00
56912;BME280;42800;53.928;27.662;2023-07-24T03:25:06;98761.03;;;16.77;100.00
56912;BME280;42800;53.928;27.662;2023-07-24T03:27:33;98744.78;;;16.79;100.00
56912;BME280;42800;53.928;27.662;2023-07-24T03:29:59;98748.88;;;16.67;100.00
56912;BME280;42800;53.928;27.662;2023-07-24T03:32:25;98738.31;;;16.59;100.00
56912;BME280;42800;53.928;27.662;2023-07-24T03:34:51;98728.59;;;16.78;100.00
56912;BME280;42800;53.928;27.662;2023-07-24T03:37:17;98731.50;;;16.67;100.00
56912;BME280;42800;53.928;27.662;2023-07-24T03:39:43;98711.56;;;16.79;100.00
56912;BME280;42800;53.928;27.662;2023-07-24T03:42:10;98703.34;;;16.99;100.00
56912;BME280;42800;53.928;27.662;2023-07-24T03:44:38;98713.78;;;16.91;100.00
56912;BME280;42800;53.928;27.662;2023-07-24T03:47:04;98720.78;;;17.00;100.00
56912;BME280;42800;53.928;27.662;2023-07-24T03:49:30;98733.34;;;17.04;100.00
56912;BME280;42800;53.928;27.662;2023-07-24T03:51:56;98721.97;;;16.99;100.00
56912;BME280;42800;53.928;27.662;2023-07-24T03:54:22;98723.19;;;16.98;100.00
56912;BME280;42800;53.928;27.662;2023-07-24T03:56:48;98721.50;;;17.04;100.00
56912;BME280;42800;53.928;27.662;2023-07-24T03:59:14;98723.44;;;17.07;100.00
56912;BME280;42800;53.928;27.662;2023-07-24T04:01:40;98725.06;;;17.04;100.00
56912;BME280;42800;53.928;27.662;2023-07-24T04:04:06;98719.47;;;17.08;100.00
56912;BME280;42800;53.928;27.662;2023-07-24T04:06:32;98715.84;;;17.11;100.00
56912;BME280;42800;53.928;27.662;2023-07-24T04:08:58;98720.63;;;17.10;100.00
56912;BME280;42800;53.928;27.662;2023-07-24T04:11:24;98727.75;;;17.08;100.00
56912;BME280;42800;53.928;27.662;2023-07-24T04:13:50;98717.53;;;17.05;100.00
56912;BME280;42800;53.928;27.662;2023-07-24T04:16:16;98713.19;;;17.04;100.00
56912;BME280;42800;53.928;27.662;2023-07-24T04:18:42;98695.88;;;17.00;100.00
56912;BME280;42800;53.928;27.662;2023-07-24T04:21:08;98687.78;;;17.09;100.00
56912;BME280;42800;53.928;27.662;2023-07-24T04:23:34;98692.53;;;17.08;100.00
56912;BME280;42800;53.928;27.662;2023-07-24T04:26:00;98682.41;;;16.98;100.00
56912;BME280;42800;53.928;27.662;2023-07-24T04:28:26;98671.78;;;16.97;100.00
56912;BME280;42800;53.928;27.662;2023-07-24T04:30:52;98668.81;;;16.84;100.00
56912;BME280;42800;53.928;27.662;2023-07-24T04:33:17;98677.31;;;17.20;100.00
56912;BME280;42800;53.928;27.662;2023-07-24T04:35:47;98704.94;;;16.73;100.00
56912;BME280;42800;53.928;27.662;2023-07-24T04:38:13;98706.44;;;17.05;100.00
56912;BME280;42800;53.928;27.662;2023-07-24T04:40:39;98708.97;;;17.42;100.00
56912;BME280;42800;53.928;27.662;2023-07-24T04:43:05;98722.13;;;17.62;100.00
56912;BME280;42800;53.928;27.662;2023-07-24T04:45:31;98725.72;;;17.82;100.00
56912;BME280;42800;53.928;27.662;2023-07-24T04:47:56;98727.25;;;17.63;100.00
56912;BME280;42800;53.928;27.662;2023-07-24T04:50:22;98706.94;;;17.94;100.00
56912;BME280;42800;53.928;27.662;2023-07-24T04:52:49;98681.44;;;18.19;100.00
56912;BME280;42800;53.928;27.662;2023-07-24T04:55:15;98674.47;;;18.30;100.00
56912;BME280;42800;53.928;27.662;2023-07-24T04:57:41;98658.56;;;18.51;100.00
56912;BME280;42800;53.928;27.662;2023-07-24T05:00:08;98625.97;;;18.71;100.00
56912;BME280;42800;53.928;27.662;2023-07-24T05:02:34;98586.44;;;18.84;100.00
56912;BME280;42800;53.928;27.662;2023-07-24T05:05:00;98455.47;;;18.69;100.00
56912;BME280;42800;53.928;27.662;2023-07-24T05:07:26;98374.22;;;18.97;100.00
56912;BME280;42800;53.928;27.662;2023-07-24T05:09:52;98409.66;;;18.93;100.00
56912;BME280;42800;53.928;27.662;2023-07-24T05:12:18;98305.06;;;18.74;100.00
56912;BME280;42800;53.928;27.662;2023-07-24T05:14:44;98380.16;;;18.54;100.00
56912;BME280;42800;53.928;27.662;2023-07-24T05:17:10;98414.28;;;18.67;100.00
56912;BME280;42800;53.928;27.662;2023-07-24T05:19:44;98410.72;;;18.67;100.00
56912;BME280;42800;53.928;27.662;2023-07-24T05:22:10;98409.41;;;18.71;100.00
56912;BME280;42800;53.928;27.662;2023-07-24T05:24:36;98410.56;;;19.03;100.00
56912;BME280;42800;53.928;27.662;2023-07-24T05:27:02;98347.66;;;18.96;100.00
56912;BME280;42800;53.928;27.662;2023-07-24T05:29:28;98286.84;;;18.86;100.00
56912;BME280;42800;53.928;27.662;2023-07-24T05:31:54;98260.88;;;19.05;100.00
56912;BME280;42800;53.928;27.662;2023-07-24T05:34:20;98288.91;;;19.36;100.00
56912;BME280;42800;53.928;27.662;2023-07-24T05:36:47;98148.75;;;19.59;100.00
56912;BME280;42800;53.928;27.662;2023-07-24T05:39:13;98134.50;;;19.92;100.00
56912;BME280;42800;53.928;27.662;2023-07-24T05:41:39;98092.00;;;20.13;100.00
56912;BME280;42800;53.928;27.662;2023-07-24T05:44:05;98079.22;;;20.25;100.00
56912;BME280;42800;53.928;27.662;2023-07-24T05:46:30;97941.56;;;20.76;100.00
56912;BME280;42800;53.928;27.662;2023-07-24T05:48:56;97720.59;;;20.88;100.00
56912;BME280;42800;53.928;27.662;2023-07-24T05:51:22;97644.88;;;20.65;100.00
56912;BME280;42800;53.928;27.662;2023-07-24T05:53:49;97720.00;;;20.84;100.00
56912;BME280;42800;53.928;27.662;2023-07-24T05:56:15;97749.41;;;20.76;100.00
56912;BME280;42800;53.928;27.662;2023-07-24T05:58:41;97661.63;;;20.47;100.00
56912;BME280;42800;53.928;27.662;2023-07-24T06:01:07;97484.97;;;20.81;100.00
56912;BME280;42800;53.928;27.662;2023-07-24T06:03:35;97510.22;;;20.44;100.00
56912;BME280;42800;53.928;27.662;2023-07-24T06:06:01;97396.91;;;19.88;100.00
56912;BME280;42800;53.928;27.662;2023-07-24T06:08:27;97452.09;;;20.95;100.00
56912;BME280;42800;53.928;27.662;2023-07-24T06:10:54;97244.16;;;21.97;100.00
56912;BME280;42800;53.928;27.662;2023-07-24T06:13:20;97356.75;;;22.50;100.00
56912;BME280;42800;53.928;27.662;2023-07-24T06:15:47;97394.22;;;23.31;100.00
56912;BME280;42800;53.928;27.662;2023-07-24T06:18:13;97421.41;;;22.28;100.00
56912;BME280;42800;53.928;27.662;2023-07-24T06:20:39;97348.84;;;22.28;100.00
56912;BME280;42800;53.928;27.662;2023-07-24T06:23:05;97407.03;;;22.00;100.00
56912;BME280;42800;53.928;27.662;2023-07-24T06:25:31;97304.38;;;21.69;100.00
56912;BME280;42800;53.928;27.662;2023-07-24T06:27:58;97372.97;;;21.96;100.00
56912;BME280;42800;53.928;27.662;2023-07-24T06:30:24;97302.53;;;22.36;100.00
56912;BME280;42800;53.928;27.662;2023-07-24T06:32:50;97299.53;;;22.19;100.00
56912;BME280;42800;53.928;27.662;2023-07-24T06:35:16;97260.25;;;22.23;100.00
56912;BME280;42800;53.928;27.662;2023-07-24T06:37:42;97240.22;;;22.24;100.00
56912;BME280;42800;53.928;27.662;2023-07-24T06:40:08;97248.50;;;21.98;100.00
56912;BME280;42800;53.928;27.662;2023-07-24T06:42:34;97217.25;;;21.94;100.00
56912;BME280;42800;53.928;27.662;2023-07-24T06:45:01;97216.81;;;22.01;100.00
56912;BME280;42800;53.928;27.662;2023-07-24T06:47:27;97237.47;;;21.89;100.00
56912;BME280;42800;53.928;27.662;2023-07-24T06:49:53;97238.59;;;21.77;100.00
56912;BME280;42800;53.928;27.662;2023-07-24T06:52:19;97225.53;;;21.48;100.00
56912;BME280;42800;53.928;27.662;2023-07-24T06:54:45;97219.69;;;21.66;100.00
56912;BME280;42800;53.928;27.662;2023-07-24T06:57:11;97224.31;;;21.90;100.00
56912;BME280;42800;53.928;27.662;2023-07-24T06:59:37;97227.34;;;23.11;100.00
56912;BME280;42800;53.928;27.662;2023-07-24T07:02:03;97324.78;;;23.61;100.00
56912;BME280;42800;53.928;27.662;2023-07-24T07:04:30;97353.31;;;23.97;100.00
56912;BME280;42800;53.928;27.662;2023-07-24T07:06:56;97434.22;;;24.80;100.00
56912;BME280;42800;53.928;27.662;2023-07-24T07:09:22;97545.22;;;24.09;100.00
56912;BME280;42800;53.928;27.662;2023-07-24T07:11:48;97582.25;;;23.46;100.00
56912;BME280;42800;53.928;27.662;2023-07-24T07:14:14;97545.16;;;23.51;100.00
56912;BME280;42800;53.928;27.662;2023-07-24T07:16:40;97530.41;;;22.89;100.00
56912;BME280;42800;53.928;27.662;2023-07-24T07:19:07;97474.19;;;23.48;100.00
56912;BME280;42800;53.928;27.662;2023-07-24T07:21:34;97440.25;;;23.35;100.00
56912;BME280;42800;53.928;27.662;2023-07-24T07:24:00;97443.56;;;23.65;100.00
56912;BME280;42800;53.928;27.662;2023-07-24T07:26:26;97449.25;;;23.71;100.00
56912;BME280;42800;53.928;27.662;2023-07-24T07:28:54;97517.53;;;24.11;100.00
56912;BME280;42800;53.928;27.662;2023-07-24T07:31:20;97544.47;;;24.40;100.00
56912;BME280;42800;53.928;27.662;2023-07-24T07:33:47;97623.38;;;24.64;100.00
56912;BME280;42800;53.928;27.662;2023-07-24T07:36:14;97692.03;;;26.09;100.00
56912;BME280;42800;53.928;27.662;2023-07-24T07:38:40;97761.72;;;26.93;100.00
56912;BME280;42800;53.928;27.662;2023-07-24T07:41:06;97864.31;;;27.54;100.00
56912;BME280;42800;53.928;27.662;2023-07-24T07:43:32;97879.16;;;27.77;100.00
56912;BME280;42800;53.928;27.662;2023-07-24T07:45:58;97885.28;;;27.58;100.00
56912;BME280;42800;53.928;27.662;2023-07-24T07:48:24;97907.00;;;28.14;100.00
56912;BME280;42800;53.928;27.662;2023-07-24T07:50:51;97903.97;;;27.95;100.00
56912;BME280;42800;53.928;27.662;2023-07-24T07:53:17;97905.22;;;28.11;100.00
56912;BME280;42800;53.928;27.662;2023-07-24T07:55:43;97935.69;;;28.29;100.00
56912;BME280;42800;53.928;27.662;2023-07-24T07:58:09;97965.53;;;28.77;100.00
56912;BME280;42800;53.928;27.662;2023-07-24T08:00:35;97977.22;;;29.92;100.00
56912;BME280;42800;53.928;27.662;2023-07-24T08:03:01;97968.31;;;29.47;100.00
56912;BME280;42800;53.928;27.662;2023-07-24T08:05:27;97982.63;;;30.26;96.36
56912;BME280;42800;53.928;27.662;2023-07-24T08:07:54;97985.44;;;30.75;92.57
56912;BME280;42800;53.928;27.662;2023-07-24T08:10:20;97975.75;;;29.86;97.74
56912;BME280;42800;53.928;27.662;2023-07-24T08:12:46;97982.25;;;29.28;99.47
56912;BME280;42800;53.928;27.662;2023-07-24T08:15:12;97998.47;;;29.69;81.42
56912;BME280;42800;53.928;27.662;2023-07-24T08:17:38;97990.81;;;29.99;91.80
56912;BME280;42800;53.928;27.662;2023-07-24T08:20:05;97972.44;;;29.40;98.62
56912;BME280;42800;53.928;27.662;2023-07-24T08:22:31;97987.44;;;30.01;94.39
56912;BME280;42800;53.928;27.662;2023-07-24T08:24:57;97979.22;;;30.82;91.01
56912;BME280;42800;53.928;27.662;2023-07-24T08:27:23;97980.81;;;29.63;92.96
56912;BME280;42800;53.928;27.662;2023-07-24T08:29:50;97982.41;;;29.47;90.49
56912;BME280;42800;53.928;27.662;2023-07-24T08:32:16;97970.84;;;29.09;93.15
56912;BME280;42800;53.928;27.662;2023-07-24T08:34:42;97972.72;;;29.37;89.18
56912;BME280;42800;53.928;27.662;2023-07-24T08:37:08;97955.72;;;29.42;98.44
56912;BME280;42800;53.928;27.662;2023-07-24T08:39:34;97987.88;;;29.34;87.67
56912;BME280;42800;53.928;27.662;2023-07-24T08:42:08;97979.84;;;30.20;87.78
56912;BME280;42800;53.928;27.662;2023-07-24T08:44:34;97976.53;;;28.87;88.95
56912;BME280;42800;53.928;27.662;2023-07-24T08:47:01;97971.50;;;29.68;84.91
56912;BME280;42800;53.928;27.662;2023-07-24T08:49:29;97984.78;;;30.09;83.25
56912;BME280;42800;53.928;27.662;2023-07-24T08:51:55;97969.50;;;29.57;93.56
56912;BME280;42800;53.928;27.662;2023-07-24T08:54:22;97966.72;;;29.04;86.96
56912;BME280;42800;53.928;27.662;2023-07-24T08:56:50;97973.13;;;29.05;87.16
56912;BME280;42800;53.928;27.662;2023-07-24T08:59:17;97943.59;;;27.35;100.00
56912;BME280;42800;53.928;27.662;2023-07-24T09:01:44;97939.75;;;26.56;100.00
56912;BME280;42800;53.928;27.662;2023-07-24T09:04:10;97950.56;;;27.62;99.06
56912;BME280;42800;53.928;27.662;2023-07-24T09:06:37;97943.66;;;27.80;100.00
56912;BME280;42800;53.928;27.662;2023-07-24T09:09:12;97932.13;;;27.67;100.00
56912;BME280;42800;53.928;27.662;2023-07-24T09:11:45;97928.78;;;27.63;100.00
56912;BME280;42800;53.928;27.662;2023-07-24T09:14:19;97912.88;;;27.32;100.00
56912;BME280;42800;53.928;27.662;2023-07-24T09:16:45;97897.44;;;26.99;100.00
56912;BME280;42800;53.928;27.662;2023-07-24T09:19:17;97875.97;;;26.31;100.00
56912;BME280;42800;53.928;27.662;2023-07-24T09:21:43;97831.38;;;26.49;100.00
56912;BME280;42800;53.928;27.662;2023-07-24T09:24:11;97812.50;;;25.27;100.00
56912;BME280;42800;53.928;27.662;2023-07-24T09:26:47;97762.72;;;25.96;100.00
56912;BME280;42800;53.928;27.662;2023-07-24T09:29:13;97757.56;;;25.46;100.00
56912;BME280;42800;53.928;27.662;2023-07-24T09:31:39;97807.81;;;25.50;100.00
56912;BME280;42800;53.928;27.662;2023-07-24T09:34:14;97779.88;;;25.29;100.00
56912;BME280;42800;53.928;27.662;2023-07-24T09:36:40;97741.31;;;25.24;100.00
56912;BME280;42800;53.928;27.662;2023-07-24T09:39:06;97761.75;;;24.99;100.00
56912;BME280;42800;53.928;27.662;2023-07-24T09:41:35;97793.97;;;25.78;100.00
56912;BME280;42800;53.928;27.662;2023-07-24T09:44:01;97789.66;;;25.40;100.00
56912;BME280;42800;53.928;27.662;2023-07-24T09:46:28;97782.81;;;25.46;100.00
56912;BME280;42800;53.928;27.662;2023-07-24T09:48:55;97763.34;;;25.37;100.00
56912;BME280;42800;53.928;27.662;2023-07-24T09:51:23;97787.41;;;25.92;100.00
56912;BME280;42800;53.928;27.662;2023-07-24T09:53:55;97824.72;;;25.61;100.00
56912;BME280;42800;53.928;27.662;2023-07-24T09:56:22;97823.91;;;25.55;100.00
56912;BME280;42800;53.928;27.662;2023-07-24T09:58:50;97798.44;;;26.01;100.00
56912;BME280;42800;53.928;27.662;2023-07-24T10:01:20;97816.41;;;26.21;100.00
56912;BME280;42800;53.928;27.662;2023-07-24T10:03:48;97819.06;;;26.41;100.00
56912;BME280;42800;53.928;27.662;2023-07-24T10:06:15;97812.16;;;25.88;100.00
56912;BME280;42800;53.928;27.662;2023-07-24T10:08:44;97826.59;;;26.78;100.00
56912;BME280;42800;53.928;27.662;2023-07-24T10:11:13;97833.34;;;27.20;100.00
56912;BME280;42800;53.928;27.662;2023-07-24T10:13:40;97843.28;;;27.88;100.00
56912;BME280;42800;53.928;27.662;2023-07-24T10:16:06;97864.53;;;27.39;100.00
56912;BME280;42800;53.928;27.662;2023-07-24T10:18:34;97858.69;;;27.59;100.00
56912;BME280;42800;53.928;27.662;2023-07-24T10:21:01;97859.06;;;28.25;100.00
56912;BME280;42800;53.928;27.662;2023-07-24T10:23:28;97878.13;;;28.72;100.00
56912;BME280;42800;53.928;27.662;2023-07-24T10:25:54;97873.13;;;28.42;100.00
56912;BME280;42800;53.928;27.662;2023-07-24T10:28:30;97874.69;;;29.37;100.00
56912;BME280;42800;53.928;27.662;2023-07-24T10:30:56;97879.63;;;28.84;100.00
56912;BME280;42800;53.928;27.662;2023-07-24T10:33:22;97847.13;;;27.18;100.00
56912;BME280;42800;53.928;27.662;2023-07-24T10:35:52;97852.34;;;28.56;100.00
56912;BME280;42800;53.928;27.662;2023-07-24T10:38:19;97837.69;;;27.60;100.00
56912;BME280;42800;53.928;27.662;2023-07-24T10:40:46;97817.47;;;27.45;100.00
56912;BME280;42800;53.928;27.662;2023-07-24T10:43:19;97804.41;;;27.70;100.00
56912;BME280;42800;53.928;27.662;2023-07-24T10:45:47;97732.50;;;25.80;100.00
56912;BME280;42800;53.928;27.662;2023-07-24T10:48:14;97758.88;;;26.70;100.00
56912;BME280;42800;53.928;27.662;2023-07-24T10:50:41;97735.59;;;26.92;100.00
56912;BME280;42800;53.928;27.662;2023-07-24T10:53:08;97744.53;;;25.86;100.00
56912;BME280;42800;53.928;27.662;2023-07-24T10:55:34;97765.22;;;26.54;100.00
56912;BME280;42800;53.928;27.662;2023-07-24T10:58:00;97746.13;;;27.31;100.00
56912;BME280;42800;53.928;27.662;2023-07-24T11:00:27;97764.44;;;27.88;100.00
56912;BME280;42800;53.928;27.662;2023-07-24T11:02:54;97765.28;;;27.50;100.00
56912;BME280;42800;53.928;27.662;2023-07-24T11:05:20;97782.63;;;27.82;100.00
56912;BME280;42800;53.928;27.662;2023-07-24T11:07:46;97780.56;;;27.99;100.00
56912;BME280;42800;53.928;27.662;2023-07-24T11:10:16;97780.63;;;27.37;100.00
56912;BME280;42800;53.928;27.662;2023-07-24T11:12:42;97754.53;;;27.09;100.00
56912;BME280;42800;53.928;27.662;2023-07-24T11:15:08;97747.63;;;27.32;100.00
56912;BME280;42800;53.928;27.662;2023-07-24T11:17:35;97754.31;;;28.21;100.00
56912;BME280;42800;53.928;27.662;2023-07-24T11:20:10;97746.81;;;27.65;100.00
56912;BME280;42800;53.928;27.662;2023-07-24T11:22:38;97739.47;;;26.89;100.00
56912;BME280;42800;53.928;27.662;2023-07-24T11:25:05;97736.66;;;27.29;100.00
56912;BME280;42800;53.928;27.662;2023-07-24T11:27:32;97718.88;;;27.90;100.00
56912;BME280;42800;53.928;27.662;2023-07-24T11:29:58;97698.78;;;27.35;100.00
56912;BME280;42800;53.928;27.662;2023-07-24T11:32:24;97695.16;;;27.57;100.00
56912;BME280;42800;53.928;27.662;2023-07-24T11:34:52;97697.59;;;27.89;100.00
56912;BME280;42800;53.928;27.662;2023-07-24T11:37:18;97705.56;;;27.90;100.00
56912;BME280;42800;53.928;27.662;2023-07-24T11:39:55;97711.81;;;27.50;100.00
56912;BME280;42800;53.928;27.662;2023-07-24T11:42:20;97713.78;;;27.72;100.00
56912;BME280;42800;53.928;27.662;2023-07-24T11:44:46;97704.91;;;27.45;100.00
56912;BME280;42800;53.928;27.662;2023-07-24T11:47:12;97693.69;;;27.06;100.00
56912;BME280;42800;53.928;27.662;2023-07-24T11:49:38;97656.13;;;26.92;100.00
56912;BME280;42800;53.928;27.662;2023-07-24T11:52:11;97642.00;;;27.26;100.00
56912;BME280;42800;53.928;27.662;2023-07-24T11:54:37;97637.19;;;27.15;100.00
56912;BME280;42800;53.928;27.662;2023-07-24T11:57:03;97618.06;;;26.57;100.00
56912;BME280;42800;53.928;27.662;2023-07-24T11:59:39;97592.50;;;26.16;100.00
56912;BME280;42800;53.928;27.662;2023-07-24T12:02:05;97583.31;;;26.66;100.00
56912;BME280;42800;53.928;27.662;2023-07-24T12:04:34;97613.94;;;26.13;100.00
56912;BME280;42800;53.928;27.662;2023-07-24T12:07:00;97589.41;;;26.87;100.00
56912;BME280;42800;53.928;27.662;2023-07-24T12:09:29;97617.22;;;27.18;100.00
56912;BME280;42800;53.928;27.662;2023-07-24T12:11:58;97640.25;;;27.17;100.00
56912;BME280;42800;53.928;27.662;2023-07-24T12:14:24;97611.38;;;26.99;100.00
56912;BME280;42800;53.928;27.662;2023-07-24T12:17:00;97620.53;;;27.34;100.00
56912;BME280;42800;53.928;27.662;2023-07-24T12:19:26;97605.03;;;26.60;100.00
56912;BME280;42800;53.928;27.662;2023-07-24T12:21:52;97576.41;;;26.61;100.00
56912;BME280;42800;53.928;27.662;2023-07-24T12:24:18;97616.03;;;26.58;100.00
56912;BME280;42800;53.928;27.662;2023-07-24T12:26:45;97550.09;;;26.08;100.00
56912;BME280;42800;53.928;27.662;2023-07-24T12:29:10;97527.59;;;26.42;100.00
56912;BME280;42800;53.928;27.662;2023-07-24T12:31:36;97534.75;;;25.87;100.00
56912;BME280;42800;53.928;27.662;2023-07-24T12:34:02;97526.09;;;26.07;100.00
56912;BME280;42800;53.928;27.662;2023-07-24T12:36:28;97553.13;;;26.83;100.00
56912;BME280;42800;53.928;27.662;2023-07-24T12:38:54;97565.66;;;26.32;100.00